sensor_id;sensor_type;location;lat;lon;timestamp;P1;durP1;ratioP1;P2;durP2;ratioP2
4565;SDS011;2295;51.050;14.608;2023-09-19T00:00:43;4.30;;;2.20;;
4565;SDS011;2295;51.050;14.608;2023-09-19T00:03:14;3.57;;;2.27;;
4565;SDS011;2295;51.050;14.608;2023-09-19T00:05:43;2.70;;;2.10;;
4565;SDS011;2295;51.050;14.608;2023-09-19T00:08:12;6.10;;;2.20;;
4565;SDS011;2295;51.050;14.608;2023-09-19T00:10:42;9.77;;;2.53;;
4565;SDS011;2295;51.050;14.608;2023-09-19T00:13:12;5.17;;;2.40;;
4565;SDS011;2295;51.050;14.608;2023-09-19T00:15:43;5.77;;;2.67;;
4565;SDS011;2295;51.050;14.608;2023-09-19T00:18:16;4.47;;;2.40;;
4565;SDS011;2295;51.050;14.608;2023-09-19T00:20:45;7.10;;;2.60;;
4565;SDS011;2295;51.050;14.608;2023-09-19T00:23:16;3.20;;;2.00;;
4565;SDS011;2295;51.050;14.608;2023-09-19T00:25:46;4.90;;;3.20;;
4565;SDS011;2295;51.050;14.608;2023-09-19T00:28:16;5.40;;;2.30;;
4565;SDS011;2295;51.050;14.608;2023-09-19T00:30:45;3.93;;;2.60;;
4565;SDS011;2295;51.050;14.608;2023-09-19T00:33:16;4.17;;;2.27;;
4565;SDS011;2295;51.050;14.608;2023-09-19T00:35:49;8.27;;;2.70;;
4565;SDS011;2295;51.050;14.608;2023-09-19T00:38:18;11.80;;;2.60;;
4565;SDS011;2295;51.050;14.608;2023-09-19T00:40:49;5.33;;;2.47;;
4565;SDS011;2295;51.050;14.608;2023-09-19T00:43:20;2.33;;;2.13;;
4565;SDS011;2295;51.050;14.608;2023-09-19T00:45:51;4.50;;;2.37;;
4565;SDS011;2295;51.050;14.608;2023-09-19T00:48:21;3.90;;;2.80;;
4565;SDS011;2295;51.050;14.608;2023-09-19T00:50:52;5.10;;;2.40;;
4565;SDS011;2295;51.050;14.608;2023-09-19T00:53:21;4.80;;;2.43;;
4565;SDS011;2295;51.050;14.608;2023-09-19T00:55:52;4.43;;;2.13;;
4565;SDS011;2295;51.050;14.608;2023-09-19T00:58:24;10.30;;;3.20;;
4565;SDS011;2295;51.050;14.608;2023-09-19T01:00:52;5.67;;;2.87;;
4565;SDS011;2295;51.050;14.608;2023-09-19T01:03:22;6.80;;;2.50;;
4565;SDS011;2295;51.050;14.608;2023-09-19T01:05:50;6.93;;;3.20;;
4565;SDS011;2295;51.050;14.608;2023-09-19T01:08:19;7.43;;;2.63;;
4565;SDS011;2295;51.050;14.608;2023-09-19T01:10:50;5.97;;;2.60;;
4565;SDS011;2295;51.050;14.608;2023-09-19T01:13:22;4.60;;;2.77;;
4565;SDS011;2295;51.050;14.608;2023-09-19T01:15:59;7.53;;;3.43;;
4565;SDS011;2295;51.050;14.608;2023-09-19T01:18:35;5.73;;;3.10;;
4565;SDS011;2295;51.050;14.608;2023-09-19T01:21:12;5.87;;;3.10;;
4565;SDS011;2295;51.050;14.608;2023-09-19T01:24:06;3.53;;;2.83;;
4565;SDS011;2295;51.050;14.608;2023-09-19T01:27:07;5.83;;;2.70;;
4565;SDS011;2295;51.050;14.608;2023-09-19T01:29:51;7.20;;;3.20;;
4565;SDS011;2295;51.050;14.608;2023-09-19T01:32:22;5.93;;;3.17;;
4565;SDS011;2295;51.050;14.608;2023-09-19T01:34:53;9.57;;;3.50;;
4565;SDS011;2295;51.050;14.608;2023-09-19T01:37:24;6.13;;;3.33;;
4565;SDS011;2295;51.050;14.608;2023-09-19T01:39:55;3.90;;;2.40;;
4565;SDS011;2295;51.050;14.608;2023-09-19T01:42:35;8.57;;;3.00;;
4565;SDS011;2295;51.050;14.608;2023-09-19T01:45:09;7.23;;;3.30;;
4565;SDS011;2295;51.050;14.608;2023-09-19T01:47:45;4.57;;;3.27;;
4565;SDS011;2295;51.050;14.608;2023-09-19T01:50:21;5.17;;;3.10;;
4565;SDS011;2295;51.050;14.608;2023-09-19T01:52:59;10.17;;;3.60;;
4565;SDS011;2295;51.050;14.608;2023-09-19T01:55:33;3.20;;;2.90;;
4565;SDS011;2295;51.050;14.608;2023-09-19T01:58:12;4.20;;;2.67;;
4565;SDS011;2295;51.050;14.608;2023-09-19T02:00:48;5.23;;;3.00;;
4565;SDS011;2295;51.050;14.608;2023-09-19T02:03:20;5.87;;;2.77;;
4565;SDS011;2295;51.050;14.608;2023-09-19T02:05:50;8.37;;;3.33;;
4565;SDS011;2295;51.050;14.608;2023-09-19T02:08:20;9.87;;;3.40;;
4565;SDS011;2295;51.050;14.608;2023-09-19T02:10:50;3.40;;;3.10;;
4565;SDS011;2295;51.050;14.608;2023-09-19T02:13:20;5.68;;;2.95;;
4565;SDS011;2295;51.050;14.608;2023-09-19T02:15:50;6.03;;;3.70;;
4565;SDS011;2295;51.050;14.608;2023-09-19T02:18:20;13.60;;;3.80;;
4565;SDS011;2295;51.050;14.608;2023-09-19T02:20:48;5.40;;;3.13;;
4565;SDS011;2295;51.050;14.608;2023-09-19T02:23:17;6.03;;;3.20;;
4565;SDS011;2295;51.050;14.608;2023-09-19T02:25:51;3.50;;;3.20;;
4565;SDS011;2295;51.050;14.608;2023-09-19T02:28:20;5.60;;;3.23;;
4565;SDS011;2295;51.050;14.608;2023-09-19T02:30:49;7.57;;;3.60;;
4565;SDS011;2295;51.050;14.608;2023-09-19T02:33:18;4.90;;;3.77;;
4565;SDS011;2295;51.050;14.608;2023-09-19T02:35:47;3.77;;;3.47;;
4565;SDS011;2295;51.050;14.608;2023-09-19T02:38:16;8.80;;;3.10;;
4565;SDS011;2295;51.050;14.608;2023-09-19T02:40:51;5.40;;;3.50;;
4565;SDS011;2295;51.050;14.608;2023-09-19T02:43:19;9.43;;;4.53;;
4565;SDS011;2295;51.050;14.608;2023-09-19T02:45:48;5.53;;;3.30;;
4565;SDS011;2295;51.050;14.608;2023-09-19T02:48:17;4.43;;;3.70;;
4565;SDS011;2295;51.050;14.608;2023-09-19T02:50:49;5.20;;;3.30;;
4565;SDS011;2295;51.050;14.608;2023-09-19T02:53:18;7.90;;;4.23;;
4565;SDS011;2295;51.050;14.608;2023-09-19T02:55:46;5.53;;;3.50;;
4565;SDS011;2295;51.050;14.608;2023-09-19T02:58:15;7.20;;;3.70;;
4565;SDS011;2295;51.050;14.608;2023-09-19T03:00:45;11.33;;;4.47;;
4565;SDS011;2295;51.050;14.608;2023-09-19T03:03:14;5.00;;;3.40;;
4565;SDS011;2295;51.050;14.608;2023-09-19T03:05:43;5.67;;;4.00;;
4565;SDS011;2295;51.050;14.608;2023-09-19T03:08:17;4.00;;;3.67;;
4565;SDS011;2295;51.050;14.608;2023-09-19T03:10:45;9.20;;;4.37;;
4565;SDS011;2295;51.050;14.608;2023-09-19T03:13:14;5.17;;;4.63;;
4565;SDS011;2295;51.050;14.608;2023-09-19T03:15:43;7.70;;;4.20;;
4565;SDS011;2295;51.050;14.608;2023-09-19T03:18:14;6.37;;;4.60;;
4565;SDS011;2295;51.050;14.608;2023-09-19T03:20:42;9.17;;;4.80;;
4565;SDS011;2295;51.050;14.608;2023-09-19T03:23:10;6.40;;;4.77;;
4565;SDS011;2295;51.050;14.608;2023-09-19T03:25:41;6.50;;;4.80;;
4565;SDS011;2295;51.050;14.608;2023-09-19T03:28:09;9.33;;;4.40;;
4565;SDS011;2295;51.050;14.608;2023-09-19T03:30:38;13.43;;;5.20;;
4565;SDS011;2295;51.050;14.608;2023-09-19T03:33:06;6.07;;;4.90;;
4565;SDS011;2295;51.050;14.608;2023-09-19T03:35:39;6.47;;;5.10;;
4565;SDS011;2295;51.050;14.608;2023-09-19T03:38:07;11.00;;;5.20;;
4565;SDS011;2295;51.050;14.608;2023-09-19T03:40:35;10.13;;;5.40;;
4565;SDS011;2295;51.050;14.608;2023-09-19T03:43:05;7.10;;;5.80;;
4565;SDS011;2295;51.050;14.608;2023-09-19T03:45:34;6.10;;;4.57;;
4565;SDS011;2295;51.050;14.608;2023-09-19T03:48:07;9.20;;;5.40;;
4565;SDS011;2295;51.050;14.608;2023-09-19T03:50:36;6.37;;;5.73;;
4565;SDS011;2295;51.050;14.608;2023-09-19T03:53:04;10.00;;;5.17;;
4565;SDS011;2295;51.050;14.608;2023-09-19T03:55:33;12.53;;;6.30;;
4565;SDS011;2295;51.050;14.608;2023-09-19T03:58:02;11.50;;;6.57;;
4565;SDS011;2295;51.050;14.608;2023-09-19T04:00:32;7.60;;;6.03;;
4565;SDS011;2295;51.050;14.608;2023-09-19T04:03:04;8.47;;;5.97;;
4565;SDS011;2295;51.050;14.608;2023-09-19T04:05:34;11.33;;;5.63;;
4565;SDS011;2295;51.050;14.608;2023-09-19T04:08:02;9.00;;;5.63;;
4565;SDS011;2295;51.050;14.608;2023-09-19T04:10:31;10.90;;;5.80;;
4565;SDS011;2295;51.050;14.608;2023-09-19T04:13:00;11.37;;;5.83;;
4565;SDS011;2295;51.050;14.608;2023-09-19T04:15:28;7.50;;;5.30;;
4565;SDS011;2295;51.050;14.608;2023-09-19T04:17:57;8.93;;;5.73;;
4565;SDS011;2295;51.050;14.608;2023-09-19T04:20:26;7.70;;;5.70;;
4565;SDS011;2295;51.050;14.608;2023-09-19T04:22:54;7.73;;;6.03;;
4565;SDS011;2295;51.050;14.608;2023-09-19T04:25:23;8.40;;;6.30;;
4565;SDS011;2295;51.050;14.608;2023-09-19T04:27:53;11.50;;;6.50;;
4565;SDS011;2295;51.050;14.608;2023-09-19T04:30:21;11.50;;;5.77;;
4565;SDS011;2295;51.050;14.608;2023-09-19T04:32:49;7.57;;;6.10;;
4565;SDS011;2295;51.050;14.608;2023-09-19T04:35:19;5.77;;;5.17;;
4565;SDS011;2295;51.050;14.608;2023-09-19T04:37:48;11.03;;;6.00;;
4565;SDS011;2295;51.050;14.608;2023-09-19T04:40:17;7.07;;;5.30;;
4565;SDS011;2295;51.050;14.608;2023-09-19T04:42:52;6.00;;;5.10;;
4565;SDS011;2295;51.050;14.608;2023-09-19T04:45:23;8.27;;;5.03;;
4565;SDS011;2295;51.050;14.608;2023-09-19T04:47:52;8.80;;;5.53;;
4565;SDS011;2295;51.050;14.608;2023-09-19T04:50:22;9.63;;;4.70;;
4565;SDS011;2295;51.050;14.608;2023-09-19T04:52:54;7.03;;;4.70;;
4565;SDS011;2295;51.050;14.608;2023-09-19T04:55:22;5.20;;;4.70;;
4565;SDS011;2295;51.050;14.608;2023-09-19T04:57:51;6.90;;;4.63;;
4565;SDS011;2295;51.050;14.608;2023-09-19T05:00:20;4.53;;;4.10;;
4565;SDS011;2295;51.050;14.608;2023-09-19T05:02:50;7.00;;;4.10;;
4565;SDS011;2295;51.050;14.608;2023-09-19T05:05:19;5.63;;;4.30;;
4565;SDS011;2295;51.050;14.608;2023-09-19T05:07:50;4.20;;;3.80;;
4565;SDS011;2295;51.050;14.608;2023-09-19T05:10:20;5.27;;;4.47;;
4565;SDS011;2295;51.050;14.608;2023-09-19T05:12:49;5.00;;;4.50;;
4565;SDS011;2295;51.050;14.608;2023-09-19T05:15:21;7.30;;;5.03;;
4565;SDS011;2295;51.050;14.608;2023-09-19T05:17:49;9.03;;;5.20;;
4565;SDS011;2295;51.050;14.608;2023-09-19T05:20:23;4.90;;;4.00;;
4565;SDS011;2295;51.050;14.608;2023-09-19T05:23:01;7.30;;;3.70;;
4565;SDS011;2295;51.050;14.608;2023-09-19T05:25:32;3.53;;;3.20;;
4565;SDS011;2295;51.050;14.608;2023-09-19T05:28:04;5.90;;;3.27;;
4565;SDS011;2295;51.050;14.608;2023-09-19T05:30:32;2.83;;;2.63;;
4565;SDS011;2295;51.050;14.608;2023-09-19T05:33:03;3.20;;;2.83;;
4565;SDS011;2295;51.050;14.608;2023-09-19T05:35:31;5.17;;;2.90;;
4565;SDS011;2295;51.050;14.608;2023-09-19T05:38:01;7.97;;;2.83;;
4565;SDS011;2295;51.050;14.608;2023-09-19T05:40:32;3.50;;;2.90;;
4565;SDS011;2295;51.050;14.608;2023-09-19T05:43:01;6.43;;;3.13;;
4565;SDS011;2295;51.050;14.608;2023-09-19T05:45:30;8.60;;;2.80;;
4565;SDS011;2295;51.050;14.608;2023-09-19T05:48:07;5.23;;;2.70;;
4565;SDS011;2295;51.050;14.608;2023-09-19T05:50:36;5.40;;;2.67;;
4565;SDS011;2295;51.050;14.608;2023-09-19T05:53:06;5.83;;;2.47;;
4565;SDS011;2295;51.050;14.608;2023-09-19T05:55:34;5.57;;;2.47;;
4565;SDS011;2295;51.050;14.608;2023-09-19T05:58:05;4.00;;;2.33;;
4565;SDS011;2295;51.050;14.608;2023-09-19T06:00:35;4.93;;;2.60;;
4565;SDS011;2295;51.050;14.608;2023-09-19T06:03:05;2.40;;;2.10;;
4565;SDS011;2295;51.050;14.608;2023-09-19T06:05:34;11.67;;;4.23;;
4565;SDS011;2295;51.050;14.608;2023-09-19T06:08:03;3.13;;;2.10;;
4565;SDS011;2295;51.050;14.608;2023-09-19T06:10:35;5.47;;;2.30;;
4565;SDS011;2295;51.050;14.608;2023-09-19T06:13:04;2.43;;;1.80;;
4565;SDS011;2295;51.050;14.608;2023-09-19T06:15:36;3.40;;;1.70;;
4565;SDS011;2295;51.050;14.608;2023-09-19T06:18:09;5.73;;;1.80;;
4565;SDS011;2295;51.050;14.608;2023-09-19T06:20:41;1.97;;;1.57;;
4565;SDS011;2295;51.050;14.608;2023-09-19T06:23:11;3.97;;;1.73;;
4565;SDS011;2295;51.050;14.608;2023-09-19T06:25:41;5.50;;;1.53;;
4565;SDS011;2295;51.050;14.608;2023-09-19T06:28:10;8.00;;;1.70;;
4565;SDS011;2295;51.050;14.608;2023-09-19T06:30:39;6.77;;;1.67;;
4565;SDS011;2295;51.050;14.608;2023-09-19T06:33:08;4.97;;;1.50;;
4565;SDS011;2295;51.050;14.608;2023-09-19T06:35:38;3.57;;;1.60;;
4565;SDS011;2295;51.050;14.608;2023-09-19T06:38:07;2.13;;;1.70;;
4565;SDS011;2295;51.050;14.608;2023-09-19T06:40:41;3.87;;;1.90;;
4565;SDS011;2295;51.050;14.608;2023-09-19T06:43:10;3.93;;;1.40;;
4565;SDS011;2295;51.050;14.608;2023-09-19T06:45:38;3.90;;;1.50;;
4565;SDS011;2295;51.050;14.608;2023-09-19T06:48:07;2.20;;;1.60;;
4565;SDS011;2295;51.050;14.608;2023-09-19T06:50:36;3.67;;;1.77;;
4565;SDS011;2295;51.050;14.608;2023-09-19T06:53:07;5.47;;;1.40;;
4565;SDS011;2295;51.050;14.608;2023-09-19T06:55:36;5.27;;;1.80;;
4565;SDS011;2295;51.050;14.608;2023-09-19T06:58:06;2.33;;;1.40;;
4565;SDS011;2295;51.050;14.608;2023-09-19T07:00:35;2.47;;;1.47;;
4565;SDS011;2295;51.050;14.608;2023-09-19T07:03:05;3.60;;;1.70;;
4565;SDS011;2295;51.050;14.608;2023-09-19T07:05:38;2.90;;;2.17;;
4565;SDS011;2295;51.050;14.608;2023-09-19T07:08:09;5.73;;;1.40;;
4565;SDS011;2295;51.050;14.608;2023-09-19T07:10:40;3.53;;;1.50;;
4565;SDS011;2295;51.050;14.608;2023-09-19T07:13:16;2.10;;;1.67;;
4565;SDS011;2295;51.050;14.608;2023-09-19T07:15:45;3.70;;;1.57;;
4565;SDS011;2295;51.050;14.608;2023-09-19T07:18:17;3.23;;;1.47;;
4565;SDS011;2295;51.050;14.608;2023-09-19T07:20:46;2.57;;;1.30;;
4565;SDS011;2295;51.050;14.608;2023-09-19T07:23:16;3.80;;;1.60;;
4565;SDS011;2295;51.050;14.608;2023-09-19T07:25:45;5.73;;;1.57;;
4565;SDS011;2295;51.050;14.608;2023-09-19T07:28:16;1.63;;;1.30;;
4565;SDS011;2295;51.050;14.608;2023-09-19T07:30:45;4.23;;;1.33;;
4565;SDS011;2295;51.050;14.608;2023-09-19T07:33:14;2.77;;;1.20;;
4565;SDS011;2295;51.050;14.608;2023-09-19T07:35:45;6.47;;;1.20;;
4565;SDS011;2295;51.050;14.608;2023-09-19T07:38:13;1.53;;;1.30;;
4565;SDS011;2295;51.050;14.608;2023-09-19T07:40:43;3.10;;;1.30;;
4565;SDS011;2295;51.050;14.608;2023-09-19T07:43:11;1.50;;;1.30;;
4565;SDS011;2295;51.050;14.608;2023-09-19T07:45:41;1.77;;;1.50;;
4565;SDS011;2295;51.050;14.608;2023-09-19T07:48:09;2.03;;;1.30;;
4565;SDS011;2295;51.050;14.608;2023-09-19T07:50:41;5.87;;;1.20;;
4565;SDS011;2295;51.050;14.608;2023-09-19T07:53:11;4.20;;;1.83;;
4565;SDS011;2295;51.050;14.608;2023-09-19T07:55:40;2.13;;;1.23;;
4565;SDS011;2295;51.050;14.608;2023-09-19T07:58:09;4.53;;;1.10;;
4565;SDS011;2295;51.050;14.608;2023-09-19T08:00:37;2.20;;;1.53;;
4565;SDS011;2295;51.050;14.608;2023-09-19T08:03:07;2.77;;;1.20;;
4565;SDS011;2295;51.050;14.608;2023-09-19T08:05:43;3.00;;;1.10;;
4565;SDS011;2295;51.050;14.608;2023-09-19T08:08:12;2.97;;;1.10;;
4565;SDS011;2295;51.050;14.608;2023-09-19T08:10:42;3.90;;;1.10;;
4565;SDS011;2295;51.050;14.608;2023-09-19T08:13:12;3.03;;;1.10;;
4565;SDS011;2295;51.050;14.608;2023-09-19T08:15:44;4.00;;;1.20;;
4565;SDS011;2295;51.050;14.608;2023-09-19T08:18:14;2.70;;;1.20;;
4565;SDS011;2295;51.050;14.608;2023-09-19T08:20:48;1.47;;;1.00;;
4565;SDS011;2295;51.050;14.608;2023-09-19T08:23:17;4.97;;;1.30;;
4565;SDS011;2295;51.050;14.608;2023-09-19T08:25:46;1.53;;;1.10;;
4565;SDS011;2295;51.050;14.608;2023-09-19T08:28:14;2.20;;;1.20;;
4565;SDS011;2295;51.050;14.608;2023-09-19T08:30:45;1.53;;;1.40;;
4565;SDS011;2295;51.050;14.608;2023-09-19T08:33:15;1.57;;;1.00;;
4565;SDS011;2295;51.050;14.608;2023-09-19T08:35:43;5.00;;;1.10;;
4565;SDS011;2295;51.050;14.608;2023-09-19T08:38:12;2.97;;;1.20;;
4565;SDS011;2295;51.050;14.608;2023-09-19T08:40:40;2.30;;;1.00;;
4565;SDS011;2295;51.050;14.608;2023-09-19T08:43:10;1.73;;;0.97;;
4565;SDS011;2295;51.050;14.608;2023-09-19T08:45:39;2.13;;;1.00;;
4565;SDS011;2295;51.050;14.608;2023-09-19T08:48:12;1.33;;;0.80;;
4565;SDS011;2295;51.050;14.608;2023-09-19T08:50:51;0.80;;;0.80;;
4565;SDS011;2295;51.050;14.608;2023-09-19T08:53:26;1.17;;;0.90;;
4565;SDS011;2295;51.050;14.608;2023-09-19T08:55:59;0.80;;;0.80;;
4565;SDS011;2295;51.050;14.608;2023-09-19T08:58:31;1.10;;;1.00;;
4565;SDS011;2295;51.050;14.608;2023-09-19T09:01:07;2.17;;;1.00;;
4565;SDS011;2295;51.050;14.608;2023-09-19T09:03:40;1.83;;;1.10;;
4565;SDS011;2295;51.050;14.608;2023-09-19T09:06:15;1.33;;;0.90;;
4565;SDS011;2295;51.050;14.608;2023-09-19T09:08:44;2.33;;;0.90;;
4565;SDS011;2295;51.050;14.608;2023-09-19T09:11:14;2.10;;;0.80;;
4565;SDS011;2295;51.050;14.608;2023-09-19T09:13:43;1.40;;;0.90;;
4565;SDS011;2295;51.050;14.608;2023-09-19T09:16:12;1.90;;;0.70;;
4565;SDS011;2295;51.050;14.608;2023-09-19T09:18:47;1.10;;;1.00;;
4565;SDS011;2295;51.050;14.608;2023-09-19T09:21:20;1.77;;;1.00;;
4565;SDS011;2295;51.050;14.608;2023-09-19T09:23:48;1.63;;;1.10;;
4565;SDS011;2295;51.050;14.608;2023-09-19T09:26:19;2.13;;;1.07;;
4565;SDS011;2295;51.050;14.608;2023-09-19T09:29:10;1.10;;;1.00;;
4565;SDS011;2295;51.050;14.608;2023-09-19T09:31:43;3.13;;;1.27;;
4565;SDS011;2295;51.050;14.608;2023-09-19T09:34:13;10.53;;;1.10;;
4565;SDS011;2295;51.050;14.608;2023-09-19T09:36:44;4.60;;;1.00;;
4565;SDS011;2295;51.050;14.608;2023-09-19T09:39:29;1.97;;;1.00;;
4565;SDS011;2295;51.050;14.608;2023-09-19T09:41:58;3.03;;;0.97;;
4565;SDS011;2295;51.050;14.608;2023-09-19T09:44:27;4.13;;;1.20;;
4565;SDS011;2295;51.050;14.608;2023-09-19T09:46:58;7.90;;;1.40;;
4565;SDS011;2295;51.050;14.608;2023-09-19T09:49:50;2.73;;;1.00;;
4565;SDS011;2295;51.050;14.608;2023-09-19T09:52:44;3.43;;;1.10;;
4565;SDS011;2295;51.050;14.608;2023-09-19T09:55:13;3.00;;;1.10;;
4565;SDS011;2295;51.050;14.608;2023-09-19T09:57:42;3.80;;;1.10;;
4565;SDS011;2295;51.050;14.608;2023-09-19T10:00:11;1.33;;;0.80;;
4565;SDS011;2295;51.050;14.608;2023-09-19T10:02:47;1.63;;;1.17;;
4565;SDS011;2295;51.050;14.608;2023-09-19T10:05:17;1.40;;;1.00;;
4565;SDS011;2295;51.050;14.608;2023-09-19T10:07:57;1.57;;;1.07;;
4565;SDS011;2295;51.050;14.608;2023-09-19T10:10:40;1.10;;;1.00;;
4565;SDS011;2295;51.050;14.608;2023-09-19T10:13:20;2.53;;;0.90;;
4565;SDS011;2295;51.050;14.608;2023-09-19T10:15:50;2.70;;;0.90;;
4565;SDS011;2295;51.050;14.608;2023-09-19T10:18:22;1.00;;;0.90;;
4565;SDS011;2295;51.050;14.608;2023-09-19T10:20:55;1.20;;;0.97;;
4565;SDS011;2295;51.050;14.608;2023-09-19T10:23:24;0.93;;;0.80;;
4565;SDS011;2295;51.050;14.608;2023-09-19T10:25:56;1.97;;;0.90;;
4565;SDS011;2295;51.050;14.608;2023-09-19T10:28:28;1.37;;;1.10;;
4565;SDS011;2295;51.050;14.608;2023-09-19T10:30:59;4.97;;;1.20;;
4565;SDS011;2295;51.050;14.608;2023-09-19T10:33:32;2.50;;;0.90;;
4565;SDS011;2295;51.050;14.608;2023-09-19T10:36:05;1.67;;;0.90;;
4565;SDS011;2295;51.050;14.608;2023-09-19T10:38:35;1.00;;;0.80;;
4565;SDS011;2295;51.050;14.608;2023-09-19T10:41:07;1.20;;;0.97;;
4565;SDS011;2295;51.050;14.608;2023-09-19T10:43:38;0.70;;;0.70;;
4565;SDS011;2295;51.050;14.608;2023-09-19T10:46:11;1.10;;;0.90;;
4565;SDS011;2295;51.050;14.608;2023-09-19T10:48:40;3.90;;;0.83;;
4565;SDS011;2295;51.050;14.608;2023-09-19T10:51:12;0.90;;;0.90;;
4565;SDS011;2295;51.050;14.608;2023-09-19T10:53:46;3.30;;;0.80;;
4565;SDS011;2295;51.050;14.608;2023-09-19T10:56:19;1.10;;;1.00;;
4565;SDS011;2295;51.050;14.608;2023-09-19T10:59:05;0.80;;;0.80;;
4565;SDS011;2295;51.050;14.608;2023-09-19T11:01:41;1.07;;;0.87;;
4565;SDS011;2295;51.050;14.608;2023-09-19T11:04:23;0.97;;;0.87;;
4565;SDS011;2295;51.050;14.608;2023-09-19T11:07:05;1.70;;;0.87;;
4565;SDS011;2295;51.050;14.608;2023-09-19T11:09:45;1.00;;;0.90;;
4565;SDS011;2295;51.050;14.608;2023-09-19T11:24:30;2.63;;;1.00;;
4565;SDS011;2295;51.050;14.608;2023-09-19T11:27:14;1.43;;;1.07;;
4565;SDS011;2295;51.050;14.608;2023-09-19T11:29:44;2.33;;;1.00;;
4565;SDS011;2295;51.050;14.608;2023-09-19T11:32:13;2.00;;;1.00;;
4565;SDS011;2295;51.050;14.608;2023-09-19T11:34:44;2.93;;;0.97;;
4565;SDS011;2295;51.050;14.608;2023-09-19T11:40:35;0.90;;;0.80;;
4565;SDS011;2295;51.050;14.608;2023-09-19T11:46:07;0.97;;;0.90;;
4565;SDS011;2295;51.050;14.608;2023-09-19T11:48:35;1.20;;;1.10;;
4565;SDS011;2295;51.050;14.608;2023-09-19T11:51:11;1.03;;;0.93;;
4565;SDS011;2295;51.050;14.608;2023-09-19T11:53:46;1.43;;;0.90;;
4565;SDS011;2295;51.050;14.608;2023-09-19T11:56:17;1.10;;;0.90;;
4565;SDS011;2295;51.050;14.608;2023-09-19T11:58:49;2.97;;;0.83;;
4565;SDS011;2295;51.050;14.608;2023-09-19T12:01:24;1.00;;;0.90;;
4565;SDS011;2295;51.050;14.608;2023-09-19T12:03:56;1.40;;;1.20;;
4565;SDS011;2295;51.050;14.608;2023-09-19T12:06:26;1.20;;;0.83;;
4565;SDS011;2295;51.050;14.608;2023-09-19T12:08:56;1.37;;;0.87;;
4565;SDS011;2295;51.050;14.608;2023-09-19T12:11:29;8.77;;;1.17;;
4565;SDS011;2295;51.050;14.608;2023-09-19T12:14:00;1.57;;;0.97;;
4565;SDS011;2295;51.050;14.608;2023-09-19T12:16:31;3.37;;;1.00;;
4565;SDS011;2295;51.050;14.608;2023-09-19T12:21:55;1.27;;;1.17;;
4565;SDS011;2295;51.050;14.608;2023-09-19T12:24:26;2.03;;;1.33;;
4565;SDS011;2295;51.050;14.608;2023-09-19T12:27:01;3.03;;;1.00;;
4565;SDS011;2295;51.050;14.608;2023-09-19T12:29:32;3.00;;;1.00;;
4565;SDS011;2295;51.050;14.608;2023-09-19T12:32:10;1.57;;;1.07;;
4565;SDS011;2295;51.050;14.608;2023-09-19T12:34:40;2.93;;;1.13;;
4565;SDS011;2295;51.050;14.608;2023-09-19T12:37:10;1.50;;;1.07;;
4565;SDS011;2295;51.050;14.608;2023-09-19T12:39:39;1.97;;;1.00;;
4565;SDS011;2295;51.050;14.608;2023-09-19T12:42:17;2.50;;;1.10;;
4565;SDS011;2295;51.050;14.608;2023-09-19T12:44:47;1.20;;;1.10;;
4565;SDS011;2295;51.050;14.608;2023-09-19T12:47:22;1.93;;;1.00;;
4565;SDS011;2295;51.050;14.608;2023-09-19T12:50:10;1.50;;;1.10;;
4565;SDS011;2295;51.050;14.608;2023-09-19T12:52:44;3.47;;;1.10;;
4565;SDS011;2295;51.050;14.608;2023-09-19T12:55:22;2.40;;;1.10;;
4565;SDS011;2295;51.050;14.608;2023-09-19T12:57:56;2.03;;;1.10;;
4565;SDS011;2295;51.050;14.608;2023-09-19T13:00:42;1.57;;;1.30;;
4565;SDS011;2295;51.050;14.608;2023-09-19T13:03:12;1.13;;;1.03;;
4565;SDS011;2295;51.050;14.608;2023-09-19T13:05:49;3.77;;;1.30;;
4565;SDS011;2295;51.050;14.608;2023-09-19T13:08:24;1.17;;;1.07;;
4565;SDS011;2295;51.050;14.608;2023-09-19T13:11:05;2.60;;;1.33;;
4565;SDS011;2295;51.050;14.608;2023-09-19T13:13:43;9.07;;;1.20;;
4565;SDS011;2295;51.050;14.608;2023-09-19T13:16:16;2.47;;;1.57;;
4565;SDS011;2295;51.050;14.608;2023-09-19T13:18:49;1.20;;;1.10;;
4565;SDS011;2295;51.050;14.608;2023-09-19T13:21:27;2.07;;;1.37;;
4565;SDS011;2295;51.050;14.608;2023-09-19T13:26:46;1.60;;;1.27;;
4565;SDS011;2295;51.050;14.608;2023-09-19T13:29:25;1.97;;;1.27;;
4565;SDS011;2295;51.050;14.608;2023-09-19T13:31:53;1.60;;;1.10;;
4565;SDS011;2295;51.050;14.608;2023-09-19T13:34:22;3.40;;;1.33;;
4565;SDS011;2295;51.050;14.608;2023-09-19T13:36:51;1.47;;;1.30;;
4565;SDS011;2295;51.050;14.608;2023-09-19T13:39:19;5.50;;;1.50;;
4565;SDS011;2295;51.050;14.608;2023-09-19T13:41:51;1.30;;;1.20;;
4565;SDS011;2295;51.050;14.608;2023-09-19T13:44:19;1.70;;;1.30;;
4565;SDS011;2295;51.050;14.608;2023-09-19T13:46:49;1.60;;;1.27;;
4565;SDS011;2295;51.050;14.608;2023-09-19T13:49:17;3.47;;;1.30;;
4565;SDS011;2295;51.050;14.608;2023-09-19T13:51:48;1.40;;;1.30;;
4565;SDS011;2295;51.050;14.608;2023-09-19T13:54:16;1.30;;;1.20;;
4565;SDS011;2295;51.050;14.608;2023-09-19T13:56:47;1.57;;;1.47;;
4565;SDS011;2295;51.050;14.608;2023-09-19T13:59:15;1.73;;;1.20;;
4565;SDS011;2295;51.050;14.608;2023-09-19T14:01:44;5.60;;;1.57;;
4565;SDS011;2295;51.050;14.608;2023-09-19T14:04:14;2.77;;;1.57;;
4565;SDS011;2295;51.050;14.608;2023-09-19T14:06:42;1.70;;;1.30;;
4565;SDS011;2295;51.050;14.608;2023-09-19T14:09:12;37.07;;;3.20;;
4565;SDS011;2295;51.050;14.608;2023-09-19T14:11:40;3.83;;;1.20;;
4565;SDS011;2295;51.050;14.608;2023-09-19T14:14:12;1.37;;;1.27;;
4565;SDS011;2295;51.050;14.608;2023-09-19T14:16:41;1.63;;;1.10;;
4565;SDS011;2295;51.050;14.608;2023-09-19T14:19:10;1.43;;;1.30;;
4565;SDS011;2295;51.050;14.608;2023-09-19T14:21:41;1.97;;;1.30;;
4565;SDS011;2295;51.050;14.608;2023-09-19T14:24:10;7.80;;;1.50;;
4565;SDS011;2295;51.050;14.608;2023-09-19T14:26:39;1.83;;;1.67;;
4565;SDS011;2295;51.050;14.608;2023-09-19T14:29:10;4.70;;;1.30;;
4565;SDS011;2295;51.050;14.608;2023-09-19T14:31:39;3.43;;;1.93;;
4565;SDS011;2295;51.050;14.608;2023-09-19T14:34:08;11.53;;;1.50;;
4565;SDS011;2295;51.050;14.608;2023-09-19T14:36:37;1.30;;;1.20;;
4565;SDS011;2295;51.050;14.608;2023-09-19T14:39:07;1.83;;;1.47;;
4565;SDS011;2295;51.050;14.608;2023-09-19T14:41:35;3.20;;;1.40;;
4565;SDS011;2295;51.050;14.608;2023-09-19T14:44:04;4.37;;;2.13;;
4565;SDS011;2295;51.050;14.608;2023-09-19T14:46:32;1.57;;;1.47;;
4565;SDS011;2295;51.050;14.608;2023-09-19T14:49:03;4.33;;;1.40;;
4565;SDS011;2295;51.050;14.608;2023-09-19T14:51:32;1.50;;;1.40;;
4565;SDS011;2295;51.050;14.608;2023-09-19T14:54:02;1.40;;;1.20;;
4565;SDS011;2295;51.050;14.608;2023-09-19T14:56:32;4.40;;;1.30;;
4565;SDS011;2295;51.050;14.608;2023-09-19T14:59:01;1.40;;;1.30;;
4565;SDS011;2295;51.050;14.608;2023-09-19T15:01:30;2.13;;;1.40;;
4565;SDS011;2295;51.050;14.608;2023-09-19T15:03:59;1.93;;;1.40;;
4565;SDS011;2295;51.050;14.608;2023-09-19T15:06:28;1.77;;;1.47;;
4565;SDS011;2295;51.050;14.608;2023-09-19T15:08:56;1.63;;;1.53;;
4565;SDS011;2295;51.050;14.608;2023-09-19T15:11:27;1.43;;;1.33;;
4565;SDS011;2295;51.050;14.608;2023-09-19T15:13:57;2.33;;;1.30;;
4565;SDS011;2295;51.050;14.608;2023-09-19T15:16:26;2.80;;;1.40;;
4565;SDS011;2295;51.050;14.608;2023-09-19T15:18:54;1.83;;;1.50;;
4565;SDS011;2295;51.050;14.608;2023-09-19T15:21:23;1.70;;;1.50;;
4565;SDS011;2295;51.050;14.608;2023-09-19T15:23:51;2.03;;;1.20;;
4565;SDS011;2295;51.050;14.608;2023-09-19T15:26:19;1.63;;;1.47;;
4565;SDS011;2295;51.050;14.608;2023-09-19T15:28:48;1.57;;;1.47;;
4565;SDS011;2295;51.050;14.608;2023-09-19T15:31:22;1.47;;;1.10;;
4565;SDS011;2295;51.050;14.608;2023-09-19T15:33:50;1.53;;;1.40;;
4565;SDS011;2295;51.050;14.608;2023-09-19T15:36:19;10.10;;;1.50;;
4565;SDS011;2295;51.050;14.608;2023-09-19T15:38:57;5.30;;;1.40;;
4565;SDS011;2295;51.050;14.608;2023-09-19T15:41:27;2.23;;;1.50;;
4565;SDS011;2295;51.050;14.608;2023-09-19T15:43:58;1.53;;;1.30;;
4565;SDS011;2295;51.050;14.608;2023-09-19T15:46:29;1.40;;;1.30;;
4565;SDS011;2295;51.050;14.608;2023-09-19T15:49:00;4.93;;;1.97;;